Time;durP1;ratioP1;P1;durP2;ratioP2;P2;SDS_P1;SDS_P2;PMS_P1;PMS_P2;Temp;Humidity;BMP_temperature;BMP_pressure;BME280_temperature;BME280_humidity;BME280_pressure;Samples;Min_cycle;Max_cycle;Signal;HPM_P1;HPM_P2
2022/10/27 00:00:05;;;;;;;13.00;6.20;;;;;;;18.08;48.47;100565.56;5051472;28;20021;-41
2022/10/27 00:02:30;;;;;;;14.57;6.25;;;;;;;18.09;48.29;100561.81;5051937;28;20442;-43
2022/10/27 00:04:56;;;;;;;11.55;5.97;;;;;;;17.94;48.66;100562.28;5051168;28;20107;-42
2022/10/27 00:07:21;;;;;;;16.60;6.28;;;;;;;18.03;48.52;100560.06;5051230;28;20122;-42
2022/10/27 00:09:47;;;;;;;11.60;6.47;;;;;;;18.01;48.96;100558.66;5050671;28;20025;-42
2022/10/27 00:12:12;;;;;;;12.02;6.25;;;;;;;17.87;48.89;100561.56;5051114;28;20295;-42
2022/10/27 00:14:37;;;;;;;15.77;6.57;;;;;;;17.84;49.23;100556.66;5050921;28;20033;-41
2022/10/27 00:17:03;;;;;;;13.25;6.07;;;;;;;17.84;49.18;100563.84;5051010;28;20028;-42
2022/10/27 00:19:30;;;;;;;12.15;6.47;;;;;;;17.94;48.98;100559.59;5050919;28;20021;-43
2022/10/27 00:21:55;;;;;;;11.88;5.53;;;;;;;18.04;48.66;100556.31;5051101;28;20048;-40
2022/10/27 00:24:20;;;;;;;18.42;6.75;;;;;;;18.00;49.03;100565.91;5050518;28;20127;-42
2022/10/27 00:26:46;;;;;;;12.90;6.45;;;;;;;17.89;49.02;100569.41;5050826;28;20136;-41
2022/10/27 00:29:11;;;;;;;14.80;6.28;;;;;;;17.93;49.01;100574.13;5050841;28;20111;-40
2022/10/27 00:31:37;;;;;;;13.82;6.88;;;;;;;18.05;48.69;100566.03;5050323;28;20078;-40
2022/10/27 00:34:02;;;;;;;16.80;6.93;;;;;;;18.05;49.00;100568.75;5049361;28;20473;-41
2022/10/27 00:36:28;;;;;;;11.52;6.43;;;;;;;18.08;48.58;100568.25;5050085;28;20078;-41
2022/10/27 00:38:57;;;;;;;18.33;7.05;;;;;;;18.20;48.01;100564.75;5049637;28;20029;-41
2022/10/27 00:41:31;;;;;;;14.60;7.00;;;;;;;18.04;48.04;100566.28;5049751;28;20112;-41
2022/10/27 00:43:58;;;;;;;15.48;7.22;;;;;;;18.10;47.86;100558.06;5048582;28;20480;-41
2022/10/27 00:46:40;;;;;;;16.70;7.47;;;;;;;18.09;48.04;100567.22;5049732;28;20473;-41
2022/10/27 00:49:10;;;;;;;15.45;7.50;;;;;;;18.10;47.70;100559.94;5050191;28;20159;-41
2022/10/27 00:51:40;;;;;;;18.75;8.75;;;;;;;18.12;47.31;100564.03;5050558;28;20087;-41
2022/10/27 00:54:06;;;;;;;15.45;8.32;;;;;;;18.09;47.54;100561.81;5050112;28;20025;-41
2022/10/27 00:56:32;;;;;;;16.45;8.40;;;;;;;18.05;47.17;100562.50;5048674;28;20021;-41
2022/10/27 00:58:57;;;;;;;17.00;8.88;;;;;;;18.09;47.03;100563.72;5050146;28;20028;-41
2022/10/27 01:01:23;;;;;;;19.40;8.73;;;;;;;18.20;46.84;100573.66;5050421;28;20016;-42
2022/10/27 01:03:48;;;;;;;15.70;9.10;;;;;;;18.07;46.94;100563.13;5050133;28;20013;-42
2022/10/27 01:06:14;;;;;;;14.63;8.90;;;;;;;18.02;47.03;100571.06;5050360;28;20029;-41
2022/10/27 01:08:41;;;;;;;19.35;9.32;;;;;;;17.95;46.55;100569.31;5049563;28;20027;-41
2022/10/27 01:11:06;;;;;;;17.83;9.93;;;;;;;17.97;46.95;100566.38;5049966;28;20032;-42
2022/10/27 01:13:32;;;;;;;20.50;9.77;;;;;;;17.92;46.49;100568.97;5050164;28;20025;-41
2022/10/27 01:16:07;;;;;;;14.88;9.45;;;;;;;17.87;46.83;100566.94;5049912;28;20056;-41
2022/10/27 01:18:57;;;;;;;15.65;9.27;;;;;;;17.95;47.10;100568.47;5050045;28;20114;-41
2022/10/27 01:21:44;;;;;;;17.15;9.18;;;;;;;17.94;46.92;100562.28;5050014;28;20448;-41
2022/10/27 01:24:50;;;;;;;16.92;9.65;;;;;;;17.90;46.56;100554.91;5049185;28;20464;-41
2022/10/27 01:27:21;;;;;;;16.73;9.35;;;;;;;18.11;46.64;100561.59;5039008;28;20128;-40
2022/10/27 01:30:04;;;;;;;14.57;9.18;;;;;;;18.10;46.55;100568.03;5049962;28;20063;-40
2022/10/27 01:32:36;;;;;;;15.80;9.38;;;;;;;18.12;46.50;100571.31;5050215;28;20029;-40
2022/10/27 01:35:26;;;;;;;15.70;8.55;;;;;;;18.08;46.04;100570.94;5050308;28;20106;-40
2022/10/27 01:38:13;;;;;;;13.85;8.30;;;;;;;18.06;45.92;100581.13;5050044;28;20516;-40
2022/10/27 01:40:44;;;;;;;14.38;8.48;;;;;;;18.03;46.04;100578.09;5050598;28;20029;-41
2022/10/27 01:43:14;;;;;;;14.30;8.15;;;;;;;17.92;45.99;100588.63;5050367;28;20017;-41
2022/10/27 01:45:41;;;;;;;16.08;8.20;;;;;;;17.96;46.13;100595.16;5050360;28;20029;-41
2022/10/27 01:48:09;;;;;;;15.30;8.40;;;;;;;18.04;46.18;100582.44;5050480;28;20025;-43
2022/10/27 01:50:36;;;;;;;17.17;8.30;;;;;;;18.08;46.43;100586.28;5050168;28;20072;-42
2022/10/27 01:53:02;;;;;;;13.57;7.90;;;;;;;18.12;46.19;100590.97;5050441;28;20108;-41
2022/10/27 01:55:56;;;;;;;13.48;8.07;;;;;;;18.09;46.32;100590.63;5050648;28;20053;-41
2022/10/27 01:58:30;;;;;;;13.52;7.32;;;;;;;17.96;46.13;100602.44;5050631;28;20021;-41
2022/10/27 02:01:10;;;;;;;12.95;7.35;;;;;;;17.94;46.39;100604.53;5050259;28;20170;-41
2022/10/27 02:03:51;;;;;;;;;;;;;;;18.28;45.36;100602.13;5050622;28;20020;-42
2022/10/27 02:06:27;;;;;;;13.35;7.68;;;;;;;18.17;45.49;100599.19;5048552;28;19920;-42
2022/10/27 02:09:18;;;;;;;14.55;7.10;;;;;;;18.10;46.13;100592.25;5053895;28;20025;-41
2022/10/27 02:11:47;;;;;;;14.40;6.97;;;;;;;18.06;45.30;100607.25;5054140;28;20024;-41
2022/10/27 02:14:13;;;;;;;9.73;6.57;;;;;;;18.00;45.40;100606.31;5054120;28;20017;-41
2022/10/27 02:16:46;;;;;;;13.40;6.63;;;;;;;17.80;45.78;100611.97;5053926;28;20074;-41
2022/10/27 02:19:48;;;;;;;12.02;6.63;;;;;;;17.89;45.70;100615.19;5053735;28;20017;-41
2022/10/27 02:22:14;;;;;;;;;;;;;;;18.17;44.88;100625.31;5031915;28;20040;-41
2022/10/27 02:24:39;;;;;;;12.75;6.03;;;;;;;18.00;45.39;100622.47;5049705;28;19924;-41
2022/10/27 02:27:15;;;;;;;11.07;6.22;;;;;;;17.93;45.23;100617.19;5053679;28;20017;-41
2022/10/27 02:29:46;;;;;;;11.88;6.35;;;;;;;17.63;45.20;100590.28;5053959;28;20380;-41
2022/10/27 02:32:16;;;;;;;9.07;6.25;;;;;;;17.84;45.19;100623.97;5053065;28;20103;-41
2022/10/27 02:34:43;;;;;;;12.02;6.65;;;;;;;17.78;45.55;100628.34;5053656;28;20078;-42
2022/10/27 02:37:15;;;;;;;12.38;6.65;;;;;;;17.92;45.37;100620.13;5053951;28;20017;-41
2022/10/27 02:39:40;;;;;;;12.52;6.68;;;;;;;17.94;44.98;100621.50;5053746;28;20029;-42
2022/10/27 02:42:05;;;;;;;10.50;6.47;;;;;;;17.85;44.87;100620.19;5053816;28;20070;-42
2022/10/27 02:44:31;;;;;;;11.20;5.88;;;;;;;17.86;45.38;100629.09;5052876;28;20116;-42
2022/10/27 02:46:56;;;;;;;12.30;6.45;;;;;;;17.92;45.39;100637.06;5053407;28;20029;-43
2022/10/27 02:49:22;;;;;;;11.60;6.40;;;;;;;17.89;45.29;100634.84;5053314;28;20032;-41
2022/10/27 02:51:47;;;;;;;15.18;6.00;;;;;;;17.77;45.27;100642.84;5053324;28;20096;-41
2022/10/27 02:54:12;;;;;;;10.10;5.65;;;;;;;17.72;45.23;100641.91;5053083;28;20087;-41
2022/10/27 02:56:38;;;;;;;11.30;5.47;;;;;;;17.59;45.47;100641.03;5053206;28;20029;-41
2022/10/27 02:59:03;;;;;;;9.10;5.43;;;;;;;17.70;45.57;100649.38;5052877;28;20079;-41
2022/10/27 03:01:28;;;;;;;9.05;5.70;;;;;;;17.68;45.40;100648.78;5052971;28;20195;-41
2022/10/27 03:03:54;;;;;;;13.90;5.50;;;;;;;17.65;45.76;100657.31;5053089;28;20055;-41
2022/10/27 03:06:19;;;;;;;9.52;5.53;;;;;;;17.53;45.89;100655.38;5053099;28;20013;-42
2022/10/27 03:08:45;;;;;;;11.25;5.75;;;;;;;17.62;45.27;100655.91;5052749;28;20044;-41
2022/10/27 03:11:10;;;;;;;12.10;6.15;;;;;;;17.59;45.38;100640.19;5052615;28;20083;-41
2022/10/27 03:13:35;;;;;;;10.68;5.93;;;;;;;17.60;46.03;100658.00;5052581;28;20481;-41
2022/10/27 03:16:01;;;;;;;11.30;5.97;;;;;;;17.63;46.01;100654.03;5052610;28;20476;-41
2022/10/27 03:18:26;;;;;;;13.93;6.18;;;;;;;17.51;46.08;100657.50;5052737;28;20059;-41
2022/10/27 03:20:52;;;;;;;13.38;6.43;;;;;;;17.46;46.71;100661.91;5052957;28;20021;-41
2022/10/27 03:23:17;;;;;;;21.05;6.88;;;;;;;17.43;46.83;100655.13;5052238;28;20128;-40
2022/10/27 03:25:43;;;;;;;17.88;6.78;;;;;;;17.33;46.67;100661.03;5052208;28;20020;-41
2022/10/27 03:28:10;;;;;;;11.15;5.95;;;;;;;17.22;46.86;100661.78;5052662;28;20407;-42
2022/10/27 03:30:36;;;;;;;12.10;5.80;;;;;;;17.26;47.01;100668.34;5052142;28;20021;-41
2022/10/27 03:33:02;;;;;;;16.77;9.60;;;;;;;17.14;46.63;100668.28;5052109;28;20354;-41
2022/10/27 03:35:27;;;;;;;17.15;10.02;;;;;;;17.20;46.83;100659.31;5052415;28;20020;-42
2022/10/27 03:38:00;;;;;;;13.65;7.85;;;;;;;17.23;46.54;100666.13;5052437;28;20172;-43
2022/10/27 03:40:27;;;;;;;8.88;5.60;;;;;;;17.16;46.64;100660.81;5052463;28;20025;-42
2022/10/27 03:42:57;;;;;;;14.48;5.32;;;;;;;17.19;46.66;100662.22;5052565;28;20021;-42
2022/10/27 03:45:26;;;;;;;10.43;4.95;;;;;;;17.11;46.93;100671.41;5052322;28;20155;-41
2022/10/27 03:48:03;;;;;;;7.72;4.57;;;;;;;17.20;46.59;100664.69;5053289;28;20047;-41
2022/10/27 03:50:28;;;;;;;10.55;5.00;;;;;;;17.17;46.63;100667.84;5051867;28;20075;-42
2022/10/27 03:52:54;;;;;;;10.65;4.80;;;;;;;17.17;46.65;100670.53;5051458;28;20107;-42
2022/10/27 03:55:20;;;;;;;9.98;4.25;;;;;;;17.18;46.63;100677.56;5051684;28;20068;-42
2022/10/27 03:57:45;;;;;;;11.35;4.72;;;;;;;17.16;46.21;100682.34;5050976;28;20035;-42
2022/10/27 04:00:11;;;;;;;15.07;4.38;;;;;;;17.09;46.96;100686.16;5051020;28;20031;-42
2022/10/27 04:02:36;;;;;;;9.35;4.65;;;;;;;17.08;46.33;100684.53;5051541;28;20024;-42
2022/10/27 04:05:02;;;;;;;13.23;4.82;;;;;;;17.00;47.25;100685.59;5051399;28;20472;-40
2022/10/27 04:07:27;;;;;;;9.00;4.85;;;;;;;17.08;47.12;100692.59;5052199;28;20059;-42
2022/10/27 04:09:53;;;;;;;10.68;4.40;;;;;;;16.87;48.16;100693.81;5054450;28;20416;-42
2022/10/27 04:12:18;;;;;;;10.85;4.35;;;;;;;16.96;47.77;100689.78;5070776;28;20020;-41
2022/10/27 04:14:43;;;;;;;9.70;4.63;;;;;;;17.11;48.29;100690.25;5071180;28;20032;-41
2022/10/27 04:17:09;;;;;;;8.52;4.82;;;;;;;17.04;50.11;100702.97;5051238;28;20104;-41
2022/10/27 04:19:34;;;;;;;15.07;6.45;;;;;;;17.12;47.49;100691.91;5050186;28;20396;-41
2022/10/27 04:21:59;;;;;;;12.40;5.93;;;;;;;17.09;46.76;100697.72;5050653;28;20021;-40
2022/10/27 04:24:25;;;;;;;8.70;4.20;;;;;;;17.31;59.25;100706.19;5049815;28;20107;-40
2022/10/27 04:26:50;;;;;;;9.40;4.28;;;;;;;17.64;48.47;100704.94;5050012;28;20025;-41
2022/10/27 04:29:16;;;;;;;8.85;4.07;;;;;;;17.71;46.03;100694.91;5049684;28;20107;-41
2022/10/27 04:31:41;;;;;;;12.75;4.47;;;;;;;17.77;45.39;100706.66;5049710;28;20025;-41
2022/10/27 04:34:07;;;;;;;12.45;4.60;;;;;;;17.61;46.10;100713.50;5049284;28;20041;-41
2022/10/27 04:36:32;;;;;;;11.35;5.60;;;;;;;17.40;46.09;100709.38;5049399;28;20473;-41
2022/10/27 04:38:58;;;;;;;13.88;6.72;;;;;;;17.33;46.36;100712.16;5047748;28;20027;-41
2022/10/27 04:41:23;;;;;;;14.50;7.82;;;;;;;17.08;46.96;100712.22;5049159;28;20100;-41
2022/10/27 04:43:49;;;;;;;13.10;6.80;;;;;;;17.16;48.88;100713.78;5049362;28;20028;-41
2022/10/27 04:46:15;;;;;;;17.33;7.38;;;;;;;17.23;55.34;100714.56;5049668;28;20393;-40
2022/10/27 04:48:40;;;;;;;25.63;8.52;;;;;;;17.66;52.69;100731.63;5050314;28;20461;-41
2022/10/27 04:51:06;;;;;;;16.65;8.50;;;;;;;17.81;51.31;100723.97;5050167;28;20025;-42
2022/10/27 04:53:31;;;;;;;20.38;9.10;;;;;;;18.18;49.63;100731.97;5050990;28;20029;-41
2022/10/27 04:55:56;;;;;;;19.60;10.13;;;;;;;18.50;48.57;100729.84;5049980;28;20040;-40
2022/10/27 04:58:22;;;;;;;25.27;9.80;;;;;;;18.73;49.44;100731.75;5050051;28;20029;-41
2022/10/27 05:00:47;;;;;;;22.30;10.85;;;;;;;18.89;50.47;100724.06;5050044;28;20211;-41
2022/10/27 05:03:13;;;;;;;20.33;11.90;;;;;;;19.09;49.24;100729.06;5050275;28;20028;-42
2022/10/27 05:05:38;;;;;;;19.45;10.55;;;;;;;19.20;48.70;100728.25;5049893;28;20499;-41
2022/10/27 05:08:04;;;;;;;30.38;11.73;;;;;;;19.19;47.12;100721.22;5050333;28;20025;-42
2022/10/27 05:10:32;;;;;;;20.83;10.23;;;;;;;19.33;49.49;100737.97;5050449;28;20078;-42
2022/10/27 05:12:57;;;;;;;18.92;8.95;;;;;;;19.48;47.59;100735.59;5050278;28;20025;-41
2022/10/27 05:15:23;;;;;;;19.20;9.25;;;;;;;19.62;46.15;100740.72;5050173;28;20093;-39
2022/10/27 05:17:48;;;;;;;26.33;9.40;;;;;;;19.50;43.22;100746.97;5050070;28;20055;-42
2022/10/27 05:20:14;;;;;;;18.08;9.35;;;;;;;19.20;42.77;100749.00;5050084;28;20040;-41
2022/10/27 05:22:40;;;;;;;15.43;8.40;;;;;;;18.93;43.16;100754.88;5050263;28;20075;-41
2022/10/27 05:25:06;;;;;;;78.78;44.95;;;;;;;18.72;43.10;100756.25;5050248;28;20028;-41
2022/10/27 05:27:32;;;;;;;54.33;30.60;;;;;;;18.64;43.24;100754.72;5050682;28;20031;-41
2022/10/27 05:29:57;;;;;;;25.80;12.50;;;;;;;18.52;43.49;100753.88;5050520;28;20029;-41
2022/10/27 05:32:23;;;;;;;13.27;8.30;;;;;;;18.40;43.38;100758.41;5050103;28;20025;-42
2022/10/27 05:34:48;;;;;;;17.73;7.93;;;;;;;18.29;43.65;100765.41;5050453;28;20061;-42
2022/10/27 05:37:14;;;;;;;18.92;7.22;;;;;;;18.17;44.12;100766.19;5049993;28;20033;-41
2022/10/27 05:39:39;;;;;;;11.65;6.70;;;;;;;18.13;44.01;100777.66;5049478;28;20037;-41
2022/10/27 05:42:05;;;;;;;11.13;5.80;;;;;;;18.13;44.40;100781.16;5053187;28;20029;-41
2022/10/27 05:44:30;;;;;;;12.65;5.75;;;;;;;18.10;44.48;100778.09;5054297;28;20477;-40
2022/10/27 05:46:56;;;;;;;14.13;5.40;;;;;;;17.95;44.27;100770.44;5053991;28;20499;-41
2022/10/27 05:49:21;;;;;;;14.18;5.05;;;;;;;18.17;44.22;100790.44;5053672;28;20029;-41
2022/10/27 05:51:50;;;;;;;8.32;4.95;;;;;;;18.15;44.68;100797.91;5044804;28;20033;-40
2022/10/27 05:54:16;;;;;;;8.52;4.95;;;;;;;18.21;44.35;100792.69;5045428;28;20077;-42
2022/10/27 05:56:41;;;;;;;11.13;4.32;;;;;;;18.23;43.95;100802.16;5049648;28;20480;-42
2022/10/27 05:59:08;;;;;;;6.85;3.60;;;;;;;17.80;44.95;100795.03;5054182;28;20392;-42
2022/10/27 06:01:34;;;;;;;10.27;3.80;;;;;;;17.36;46.30;100807.72;5053900;28;20112;-41
2022/10/27 06:03:59;;;;;;;11.05;3.75;;;;;;;17.71;45.18;100799.09;5054052;28;20108;-41
2022/10/27 06:06:24;;;;;;;12.30;4.30;;;;;;;17.93;44.44;100789.53;5053884;28;20085;-41
2022/10/27 06:08:51;;;;;;;7.75;3.67;;;;;;;18.04;44.16;100808.66;5053764;28;20294;-41
2022/10/27 06:11:17;;;;;;;7.90;3.58;;;;;;;17.47;45.29;100809.69;5052846;28;20100;-40
2022/10/27 06:13:43;;;;;;;8.55;3.70;;;;;;;17.31;46.16;100803.03;5052728;28;20115;-41
2022/10/27 06:16:10;;;;;;;7.90;3.38;;;;;;;17.76;45.36;100818.06;5051873;28;20059;-40
2022/10/27 06:18:39;;;;;;;7.80;4.07;;;;;;;18.15;47.22;100821.34;5051941;28;20029;-43
2022/10/27 06:21:05;;;;;;;9.80;4.67;;;;;;;18.58;49.33;100825.72;5052662;28;20503;-40
2022/10/27 06:23:31;;;;;;;11.32;4.35;;;;;;;18.84;48.67;100823.69;5051129;28;20045;-42
2022/10/27 06:25:56;;;;;;;11.52;4.10;;;;;;;19.28;44.25;100829.59;5052622;28;20028;-42
2022/10/27 06:28:22;;;;;;;20.75;12.23;;;;;;;19.82;45.94;100819.47;5052987;28;20245;-40
2022/10/27 06:30:47;;;;;;;20.33;10.98;;;;;;;20.23;41.17;100808.66;5052826;28;20523;-41
2022/10/27 06:33:13;;;;;;;9.27;5.28;;;;;;;20.42;43.57;100812.78;5053390;28;20439;-42
2022/10/27 06:35:38;;;;;;;11.52;4.43;;;;;;;20.80;43.68;100832.13;5053234;28;20480;-41
2022/10/27 06:38:04;;;;;;;13.20;4.32;;;;;;;20.72;41.50;100825.22;5053411;28;20519;-41
2022/10/27 06:40:29;;;;;;;7.70;4.28;;;;;;;20.87;42.88;100836.31;5053074;28;20055;-40
2022/10/27 06:42:55;;;;;;;10.32;4.85;;;;;;;20.95;43.62;100829.66;5053267;28;20021;-42
2022/10/27 06:45:20;;;;;;;9.50;4.28;;;;;;;21.26;41.41;100828.25;5052958;28;20013;-42
2022/10/27 06:47:55;;;;;;;8.43;4.07;;;;;;;21.35;42.25;100825.13;5052208;28;20015;-41
2022/10/27 06:50:20;;;;;;;11.07;4.22;;;;;;;21.37;42.80;100823.00;5053052;28;20013;-40
2022/10/27 06:52:45;;;;;;;18.63;4.47;;;;;;;21.59;42.30;100828.44;5052313;28;20104;-42
2022/10/27 06:55:11;;;;;;;11.00;5.00;;;;;;;21.88;40.50;100833.72;5052402;28;20448;-41
2022/10/27 06:57:40;;;;;;;12.60;4.63;;;;;;;22.12;38.88;100834.25;5052492;28;20491;-41
2022/10/27 07:00:06;;;;;;;;;;;;;;;22.54;37.16;100841.78;5052940;28;20025;-40
2022/10/27 07:02:31;;;;;;;12.13;4.90;;;;;;;22.03;37.43;100836.63;5051087;28;19908;-41
2022/10/27 07:04:56;;;;;;;12.95;5.65;;;;;;;21.64;38.04;100839.38;5052806;28;20021;-42
2022/10/27 07:07:22;;;;;;;10.30;5.10;;;;;;;21.63;37.91;100846.69;5052869;28;20108;-41
2022/10/27 07:09:47;;;;;;;11.80;4.78;;;;;;;21.13;38.81;100849.41;5052719;28;20029;-41
2022/10/27 07:12:13;;;;;;;10.57;4.50;;;;;;;20.99;39.19;100819.19;5052747;28;20115;-40
2022/10/27 07:14:38;;;;;;;12.18;5.25;;;;;;;21.06;38.80;100846.91;5052812;28;20025;-41
2022/10/27 07:17:03;;;;;;;21.15;7.90;;;;;;;20.20;40.28;100838.84;5051473;28;20027;-41
2022/10/27 07:19:29;;;;;;;20.30;6.53;;;;;;;20.61;39.89;100843.16;5050485;28;20013;-43
2022/10/27 07:21:54;;;;;;;13.20;5.63;;;;;;;20.93;39.23;100845.31;5050771;28;20025;-42
2022/10/27 07:24:20;;;;;;;17.27;5.35;;;;;;;20.98;39.31;100844.56;5050344;28;20052;-43
2022/10/27 07:26:45;;;;;;;9.82;4.93;;;;;;;21.04;38.92;100844.44;5051844;28;20021;-42
2022/10/27 07:29:11;;;;;;;13.68;5.43;;;;;;;21.24;38.57;100846.63;5051749;28;20112;-41
2022/10/27 07:31:36;;;;;;;11.40;5.85;;;;;;;21.09;38.87;100849.94;5051957;28;20086;-41
2022/10/27 07:34:02;;;;;;;19.00;6.90;;;;;;;21.07;39.27;100851.22;5052292;28;20028;-42
2022/10/27 07:36:27;;;;;;;21.95;6.72;;;;;;;21.29;38.60;100849.41;5052642;28;20048;-41
2022/10/27 07:38:52;;;;;;;16.58;5.85;;;;;;;21.43;38.08;100855.28;5051982;28;20466;-41
2022/10/27 07:41:18;;;;;;;11.05;6.20;;;;;;;21.51;37.97;100853.25;5051849;28;20178;-42
2022/10/27 07:43:44;;;;;;;13.07;6.07;;;;;;;21.67;37.80;100863.25;5051824;28;20021;-42
2022/10/27 07:46:10;;;;;;;14.15;5.50;;;;;;;21.75;38.23;100862.00;5051846;28;20024;-41
2022/10/27 07:48:35;;;;;;;21.35;5.95;;;;;;;21.93;38.03;100863.56;5051871;28;20400;-41
2022/10/27 07:51:00;;;;;;;12.98;5.75;;;;;;;21.98;37.81;100858.22;5051457;28;20028;-42
2022/10/27 07:53:26;;;;;;;15.82;5.90;;;;;;;22.10;37.45;100871.63;5051593;28;20025;-41
2022/10/27 07:55:51;;;;;;;13.73;5.72;;;;;;;22.16;37.17;100860.63;5051711;28;20121;-42
2022/10/27 07:58:17;;;;;;;13.00;5.72;;;;;;;22.25;37.16;100869.13;5052083;28;20048;-42
2022/10/27 08:00:44;;;;;;;16.38;7.05;;;;;;;22.14;37.40;100870.06;5051867;28;20028;-42
2022/10/27 08:03:14;;;;;;;20.10;5.88;;;;;;;22.23;37.44;100868.53;5051690;28;20013;-43
2022/10/27 08:05:40;;;;;;;15.68;7.03;;;;;;;22.39;37.19;100873.09;5050574;28;20029;-41
2022/10/27 08:08:06;;;;;;;14.77;6.40;;;;;;;22.39;37.41;100864.97;5051608;28;20035;-41
2022/10/27 08:10:34;;;;;;;17.42;5.93;;;;;;;22.46;37.35;100867.47;5051776;28;20027;-42
2022/10/27 08:12:59;;;;;;;15.40;5.85;;;;;;;22.52;37.47;100871.03;5050005;28;20021;-41
2022/10/27 08:15:25;;;;;;;15.02;5.97;;;;;;;22.19;37.63;100873.66;5051412;28;20044;-42
2022/10/27 08:17:51;;;;;;;14.40;5.68;;;;;;;22.25;37.81;100864.53;5051299;28;20476;-43
2022/10/27 08:20:17;;;;;;;12.43;5.57;;;;;;;22.66;37.13;100872.28;5051428;28;20125;-42
2022/10/27 08:22:42;;;;;;;13.35;5.00;;;;;;;22.68;37.16;100864.72;5051383;28;20073;-43
2022/10/27 08:25:08;;;;;;;10.88;5.20;;;;;;;22.67;37.13;100870.38;5050887;28;20415;-42
2022/10/27 08:27:33;;;;;;;20.70;6.10;;;;;;;22.68;37.19;100858.47;5051078;28;20112;-42
2022/10/27 08:29:59;;;;;;;8.60;5.00;;;;;;;23.00;36.76;100864.72;5051034;28;20177;-42
2022/10/27 08:32:24;;;;;;;16.00;4.70;;;;;;;23.43;36.08;100875.63;5050926;28;20029;-42
2022/10/27 08:34:50;;;;;;;7.40;4.60;;;;;;;23.79;35.48;100863.09;5051075;28;20017;-41
2022/10/27 08:37:15;;;;;;;10.45;4.30;;;;;;;24.10;35.00;100868.66;5050914;28;20040;-42
2022/10/27 08:39:40;;;;;;;8.70;4.32;;;;;;;23.96;35.13;100862.09;5051315;28;20025;-43
2022/10/27 08:42:31;;;;;;;8.45;4.50;;;;;;;24.33;34.84;100863.81;5051325;28;20176;-44
2022/10/27 08:45:11;;;;;;;10.77;4.70;;;;;;;24.09;34.89;100866.22;5050084;28;20449;-43
2022/10/27 08:47:37;;;;;;;6.45;3.88;;;;;;;24.31;34.42;100860.56;5051348;28;20029;-41
2022/10/27 08:50:18;;;;;;;5.97;4.00;;;;;;;24.54;34.16;100862.84;5051132;28;20039;-42
2022/10/27 08:52:58;;;;;;;7.47;4.10;;;;;;;24.44;34.47;100868.22;5050095;28;20052;-43
2022/10/27 08:55:36;;;;;;;13.48;4.20;;;;;;;24.54;34.01;100865.56;5050349;28;20052;-41
2022/10/27 08:58:27;;;;;;;11.27;4.13;;;;;;;24.62;33.85;100863.38;5050492;28;20063;-42
2022/10/27 09:01:08;;;;;;;11.50;3.92;;;;;;;24.48;34.15;100855.69;5050693;28;20428;-43
2022/10/27 09:04:12;;;;;;;12.68;4.50;;;;;;;24.67;33.50;100866.09;5050552;28;20108;-40
2022/10/27 09:06:43;;;;;;;8.63;4.07;;;;;;;24.50;34.09;100866.31;5050792;28;20036;-42
2022/10/27 09:09:20;;;;;;;11.13;4.97;;;;;;;24.80;33.75;100862.03;5050325;28;20025;-42
2022/10/27 09:12:10;;;;;;;14.00;4.60;;;;;;;24.92;33.54;100859.84;5050427;28;20036;-41
2022/10/27 09:15:13;;;;;;;17.83;7.32;;;;;;;24.66;33.51;100857.13;5050038;28;20029;-42
2022/10/27 09:17:44;;;;;;;9.00;4.88;;;;;;;24.91;33.55;100848.16;5050562;28;20029;-42
2022/10/27 09:20:32;;;;;;;10.40;4.30;;;;;;;25.22;32.92;100848.13;5050168;28;20027;-43
2022/10/27 09:23:01;;;;;;;9.52;4.18;;;;;;;25.01;32.99;100844.59;5049975;28;20079;-45
2022/10/27 09:25:27;;;;;;;9.50;3.88;;;;;;;24.68;33.98;100846.78;5050289;28;20033;-42
2022/10/27 09:27:57;;;;;;;6.50;3.72;;;;;;;25.05;33.22;100848.41;5050023;28;20106;-42
2022/10/27 09:30:31;;;;;;;13.00;4.03;;;;;;;25.36;33.19;100845.69;5049220;28;20025;-42
2022/10/27 09:32:56;;;;;;;13.98;8.68;;;;;;;25.31;33.42;100842.97;5050207;28;20048;-42
2022/10/27 09:35:24;;;;;;;16.60;11.45;;;;;;;25.56;32.86;100840.19;5050168;28;20021;-41
2022/10/27 09:37:51;;;;;;;7.95;4.00;;;;;;;25.32;32.48;100844.59;5050418;28;20052;-41
2022/10/27 09:40:21;;;;;;;6.65;3.53;;;;;;;25.42;32.48;100838.31;5050340;28;20021;-44
2022/10/27 09:42:49;;;;;;;11.15;3.90;;;;;;;25.43;32.67;100837.22;5050261;28;20014;-41
2022/10/27 09:45:17;;;;;;;10.27;3.80;;;;;;;24.81;33.56;100831.00;5050322;28;20464;-43
2022/10/27 09:47:46;;;;;;;11.47;4.27;;;;;;;24.81;33.78;100823.66;5050259;28;20378;-42
2022/10/27 09:50:21;;;;;;;7.88;4.03;;;;;;;25.36;33.28;100827.44;5050233;28;20104;-41
2022/10/27 09:52:47;;;;;;;9.38;4.03;;;;;;;25.73;32.21;100822.69;5048650;28;20051;-43
2022/10/27 09:55:13;;;;;;;5.20;3.70;;;;;;;26.16;31.66;100819.50;5049879;28;20469;-43
2022/10/27 09:57:40;;;;;;;6.03;3.70;;;;;;;26.40;31.51;100814.97;5049838;28;20103;-43
2022/10/27 10:00:15;;;;;;;8.55;3.70;;;;;;;26.91;30.67;100820.06;5050287;28;20396;-42
2022/10/27 10:02:55;;;;;;;8.57;3.63;;;;;;;27.06;30.29;100818.31;5049926;28;20017;-41
2022/10/27 10:05:24;;;;;;;8.38;3.85;;;;;;;26.63;30.77;100812.66;5049454;28;20031;-42
2022/10/27 10:07:50;;;;;;;4.63;3.83;;;;;;;26.40;31.34;100819.63;5050132;28;20412;-43
2022/10/27 10:10:21;;;;;;;6.63;3.50;;;;;;;26.29;31.20;100813.41;5049691;28;20090;-41
2022/10/27 10:13:12;;;;;;;6.90;3.72;;;;;;;26.83;30.30;100807.03;5049237;28;20477;-44
2022/10/27 10:15:42;;;;;;;;;;;;;;;27.22;30.16;100808.03;5049696;28;20032;-44
2022/10/27 10:18:25;;;;;;;8.27;4.00;;;;;;;27.49;29.33;100800.09;5049859;28;19940;-41
2022/10/27 10:20:57;;;;;;;7.85;3.45;;;;;;;27.21;30.13;100800.94;5049933;28;20025;-42
2022/10/27 10:23:30;;;;;;;7.40;3.80;;;;;;;27.63;29.51;100802.13;5049496;28;20044;-42
2022/10/27 10:25:58;;;;;;;7.13;3.45;;;;;;;27.80;29.24;100797.00;5049782;28;20118;-41
2022/10/27 10:28:39;;;;;;;6.78;4.03;;;;;;;27.86;29.08;100797.75;5051235;28;20025;-42
2022/10/27 10:31:08;;;;;;;8.15;3.92;;;;;;;28.14;29.12;100796.00;5052990;28;20021;-42
2022/10/27 10:33:37;;;;;;;6.35;3.72;;;;;;;28.06;28.82;100792.03;5053128;28;20074;-42
2022/10/27 10:36:26;;;;;;;7.38;3.50;;;;;;;28.26;28.52;100779.13;5052946;28;20110;-43
2022/10/27 10:38:55;;;;;;;7.22;3.80;;;;;;;28.61;28.07;100790.66;5053423;28;20021;-41
2022/10/27 10:41:21;;;;;;;4.40;3.45;;;;;;;28.93;27.50;100787.06;5052774;28;20021;-43
2022/10/27 10:44:14;;;;;;;10.88;4.03;;;;;;;29.09;26.98;100792.28;5053075;28;20025;-42
2022/10/27 10:46:54;;;;;;;5.68;3.55;;;;;;;29.19;26.78;100787.44;5052884;28;20024;-43
2022/10/27 10:49:32;;;;;;;5.05;3.05;;;;;;;28.98;27.14;100786.19;5052344;28;20028;-44
2022/10/27 10:52:05;;;;;;;4.45;3.40;;;;;;;29.22;26.71;100784.09;5052875;28;20072;-41
2022/10/27 10:54:35;;;;;;;7.28;3.45;;;;;;;29.09;26.69;100779.38;5053270;28;20048;-43
2022/10/27 10:57:01;;;;;;;7.68;3.55;;;;;;;29.18;27.16;100780.31;5052831;28;20476;-41
2022/10/27 10:59:32;;;;;;;7.22;3.30;;;;;;;29.25;26.90;100774.47;5052455;28;20083;-42
2022/10/27 11:02:16;;;;;;;6.78;3.65;;;;;;;28.91;26.82;100778.34;5052861;28;20108;-43
2022/10/27 11:04:46;;;;;;;7.50;3.53;;;;;;;28.86;27.18;100775.69;5052745;28;20464;-44
2022/10/27 11:07:26;;;;;;;4.70;3.25;;;;;;;29.05;27.14;100775.63;5052543;28;20035;-42
2022/10/27 11:10:01;;;;;;;6.93;3.40;;;;;;;29.20;26.54;100769.88;5052687;28;20056;-42
2022/10/27 11:12:38;;;;;;;5.10;3.40;;;;;;;29.41;26.52;100766.72;5051364;28;20056;-44
2022/10/27 11:15:26;;;;;;;6.93;3.50;;;;;;;29.28;26.52;100759.31;5052675;28;20025;-41
2022/10/27 11:17:56;;;;;;;6.60;3.30;;;;;;;29.75;26.28;100758.09;5052551;28;20037;-43
2022/10/27 11:20:28;;;;;;;7.97;3.60;;;;;;;29.84;26.57;100751.88;5052143;28;20051;-42
2022/10/27 11:22:56;;;;;;;6.80;3.90;;;;;;;30.06;26.17;100749.16;5052267;28;20049;-43
2022/10/27 11:25:26;;;;;;;8.10;3.53;;;;;;;30.28;25.91;100745.63;5052303;28;20025;-42
2022/10/27 11:28:03;;;;;;;6.03;3.45;;;;;;;30.60;26.06;100741.00;5052336;28;20112;-42